KMCO

Orlando International Airport

Orlando, Florida, USA
KMCO 182339Z 1900/2006 13004KT P6SM SCT250 FM191500 17011KT P6SM FEW040 BKN250 FM200300 19010KT P6SM VCSH SCT040 BKN100
Issued Valid From Valid To
Jan-18 @ 23:39 UTC
(3 hours ago)
Jan-19 @ 00:00 UTC
(2 hours ago)
Jan-20 @ 06:00 UTC
(-1 days ago)
Jan-19 @ 00:00 to Jan-19 @ 15:00
KMCO 182339Z 1900/2006 13004KT P6SM SCT250
Wind Visibility Clouds
130° at 4 knots Greater than 6 miles
  • Scattered at 25,000' AGL
From Jan-19 @ 15:00 to Jan-20 @ 03:00
FM191500 17011KT P6SM FEW040 BKN250
Wind Visibility Clouds
170° at 11 knots Greater than 6 miles
  • Few at 4,000' AGL
  • Broken at 25,000' AGL
From Jan-20 @ 03:00 to Jan-20 @ 06:00
FM200300 19010KT P6SM VCSH SCT040 BKN100
Wind Visibility Clouds
190° at 10 knots Greater than 6 miles
  • Scattered at 4,000' AGL
  • Broken at 10,000' AGL
KMCO 182339Z 1900/2006 13004KT P6SM SCT250 FM191500 17011KT P6SM FEW040 BKN250 FM200300 19010KT P6SM VCSH SCT040 BKN100
Issued Jan-18 @ 23:39 UTC
(3 hours ago)
Valid From Jan-19 @ 00:00 UTC
(2 hours ago)
Valid To Jan-20 @ 06:00 UTC
(-1 days ago)
Jan-19 @ 00:00 - Jan-19 @ 15:00
Wind Visibility
130° at 4 knots Greater than 6 miles
Clouds
  • Scattered at 25,000' AGL
From Jan-19 @ 15:00 - Jan-20 @ 03:00
Wind Visibility
170° at 11 knots Greater than 6 miles
Clouds
  • Few at 4,000' AGL
  • Broken at 25,000' AGL
From Jan-20 @ 03:00 - Jan-20 @ 06:00
Wind Visibility
190° at 10 knots Greater than 6 miles
Clouds
  • Scattered at 4,000' AGL
  • Broken at 10,000' AGL